Main page
METAR-TAF:

METAR-TAF

Airports :

Colorado Plains Regional Airport

Akron, Colorado, United States

latitude: 40-10-28N, longitude: 103-12-52W, elevation: 4694 ft

Current weather observation

The report was made 35 minutes ago, at 13:53 UTC
Wind 9 mph from the West
Temperature 30°F
Humidity 59%
Pressure 30.07 in. Hg
Visibility: 10 miles
Clear sky

METAR: KAKO 221353Z AUTO 27008KT 10SM CLR M01/M08 A3007 RMK AO2 SLP191 T10061083

Time: 07:28 (14:28 UTC)


TAF: missing

Weather observations and forecasts of more than 4000 airports (METAR and TAF reports).

The available stations are represented by yellow and red dots on the map.

Hover mouse over dot to see the name of the station.

Then click to see weather observations and forecasts.

To change the map : click on the green buttons with a black cross to zoom in, on the green button with a dash to zoom out, or on the green arrows for adjacent maps.


METAR-TAF: